Time;durP1;ratioP1;P1;durP2;ratioP2;P2;SDS_P1;SDS_P2;PMS_P1;PMS_P2;Temp;Humidity;BMP_temperature;BMP_pressure;BME280_temperature;BME280_humidity;BME280_pressure;Samples;Min_cycle;Max_cycle;Signal;HPM_P1;HPM_P2
2022/03/29 00:01:02;;;;;;;14.13;9.70;;;9.70;64.90;;;;;;4986435;28;20195;-91
2022/03/29 00:03:30;;;;;;;11.57;9.97;;;9.80;65.10;;;;;;4984632;28;20199;-91
2022/03/29 00:05:56;;;;;;;15.60;9.40;;;9.70;65.40;;;;;;4985186;28;20497;-91
2022/03/29 00:08:22;;;;;;;13.90;9.40;;;9.60;65.80;;;;;;4979154;28;20461;-90
2022/03/29 00:10:47;;;;;;;10.23;8.60;;;9.50;66.00;;;;;;4980251;28;20721;-91
2022/03/29 00:13:14;;;;;;;11.70;9.30;;;9.50;66.60;;;;;;4978062;28;20472;-91
2022/03/29 00:15:40;;;;;;;12.90;9.30;;;9.50;66.90;;;;;;4975657;28;20433;-92
2022/03/29 00:18:05;;;;;;;9.93;7.90;;;9.40;67.50;;;;;;4985165;28;20186;-92
2022/03/29 00:20:31;;;;;;;9.87;8.40;;;9.30;67.90;;;;;;4979445;28;20744;-91
2022/03/29 00:22:57;;;;;;;10.07;8.30;;;9.10;68.50;;;;;;4983076;28;20198;-91
2022/03/29 00:25:22;;;;;;;12.57;8.90;;;9.10;69.20;;;;;;4978978;28;20187;-91
2022/03/29 00:27:49;;;;;;;10.53;8.40;;;9.00;69.60;;;;;;4982940;28;20255;-91
2022/03/29 00:30:16;;;;;;;13.27;8.20;;;9.00;70.00;;;;;;4984865;28;20193;-91
2022/03/29 00:32:43;;;;;;;11.20;8.93;;;9.10;70.00;;;;;;4982891;28;20439;-91
2022/03/29 00:35:12;;;;;;;11.97;9.10;;;9.10;70.20;;;;;;4984362;28;20801;-92
2022/03/29 00:37:38;;;;;;;9.87;8.70;;;9.00;69.90;;;;;;4980823;28;20472;-92
2022/03/29 00:40:06;;;;;;;10.23;8.77;;;9.00;70.10;;;;;;4993437;28;20445;-91
2022/03/29 00:42:43;;;;;;;13.20;8.97;;;9.00;70.50;;;;;;5007518;28;20531;-92
2022/03/29 00:45:09;;;;;;;10.40;8.50;;;9.00;70.90;;;;;;4993035;28;20513;-90
2022/03/29 00:47:37;;;;;;;11.23;8.60;;;8.80;71.30;;;;;;4986332;28;20212;-91
2022/03/29 00:50:04;;;;;;;12.80;8.93;;;8.90;71.60;;;;;;4986330;28;20443;-92
2022/03/29 00:52:31;;;;;;;12.33;9.10;;;8.80;71.80;;;;;;4993095;28;20512;-91
2022/03/29 00:55:00;;;;;;;11.53;8.43;;;8.80;72.20;;;;;;4979769;28;20439;-91
2022/03/29 00:57:28;;;;;;;13.63;9.30;;;8.70;72.50;;;;;;4976362;28;20506;-90
2022/03/29 00:59:54;;;;;;;13.73;8.47;;;8.70;72.90;;;;;;4981498;28;20437;-91
2022/03/29 01:02:20;;;;;;;11.60;8.80;;;8.60;73.20;;;;;;4979706;28;20542;-90
2022/03/29 01:04:46;;;;;;;9.60;8.60;;;8.60;73.60;;;;;;4988313;28;20433;-89
2022/03/29 01:07:13;;;;;;;10.33;9.23;;;8.50;74.30;;;;;;4983768;28;20443;-92
2022/03/29 01:09:41;;;;;;;9.97;8.80;;;8.50;74.60;;;;;;4989475;28;20207;-92
2022/03/29 01:12:10;;;;;;;11.83;9.93;;;8.40;75.30;;;;;;4985782;28;20478;-91
2022/03/29 01:14:37;;;;;;;13.13;9.17;;;8.40;75.70;;;;;;4999347;28;20859;-91
2022/03/29 01:19:50;;;;;;;12.10;9.10;;;8.50;76.00;;;;;;5006410;28;20442;-93
2022/03/29 01:22:19;;;;;;;11.40;8.73;;;8.50;76.10;;;;;;4985698;28;20451;-91
2022/03/29 01:24:46;;;;;;;12.43;8.67;;;8.40;76.20;;;;;;4991409;28;20439;-90
2022/03/29 01:27:12;;;;;;;10.63;8.80;;;8.40;76.70;;;;;;5002133;28;20441;-91
2022/03/29 01:29:39;;;;;;;11.43;8.63;;;8.40;76.50;;;;;;4990755;28;20466;-92
2022/03/29 01:32:08;;;;;;;11.63;8.60;;;8.50;76.60;;;;;;4995017;28;20477;-91
2022/03/29 01:34:38;;;;;;;13.23;10.10;;;8.40;76.90;;;;;;4998026;28;20455;-92
2022/03/29 01:37:04;;;;;;;11.63;8.90;;;8.40;76.60;;;;;;4983938;28;20485;-91
2022/03/29 01:39:31;;;;;;;13.13;9.30;;;8.50;76.80;;;;;;4992423;28;20444;-91
2022/03/29 01:42:03;;;;;;;11.47;9.07;;;8.50;77.10;;;;;;4987577;28;20476;-91
2022/03/29 01:44:36;;;;;;;13.63;9.40;;;8.40;77.20;;;;;;4985814;28;20436;-88
2022/03/29 01:47:04;;;;;;;12.87;8.87;;;8.50;77.10;;;;;;4983597;28;21185;-90
2022/03/29 01:49:31;;;;;;;11.27;9.70;;;8.40;77.00;;;;;;4985042;28;20185;-89
2022/03/29 01:51:57;;;;;;;11.07;8.90;;;8.40;77.20;;;;;;4967274;28;20459;-90
2022/03/29 01:54:23;;;;;;;16.80;10.03;;;8.30;77.30;;;;;;4967464;28;20446;-89
2022/03/29 01:56:48;;;;;;;12.37;8.40;;;8.30;78.50;;;;;;4980366;28;20472;-89
2022/03/29 01:59:15;;;;;;;10.77;9.10;;;8.20;78.00;;;;;;4982685;28;20185;-89
2022/03/29 02:01:50;;;;;;;13.80;9.30;;;8.30;77.50;;;;;;4984701;28;20185;-91
2022/03/29 02:04:17;;;;;;;14.80;9.40;;;8.30;77.40;;;;;;4990726;28;20977;-92
2022/03/29 02:06:43;;;;;;;10.07;9.00;;;8.30;77.60;;;;;;4992350;28;20469;-91
2022/03/29 02:09:10;;;;;;;11.50;9.20;;;8.30;77.80;;;;;;4982605;28;20444;-91
2022/03/29 02:11:40;;;;;;;12.07;8.53;;;8.20;78.20;;;;;;4985798;28;20189;-90
2022/03/29 02:14:06;;;;;;;13.80;9.13;;;8.20;78.60;;;;;;4980562;28;20477;-89
2022/03/29 02:16:33;;;;;;;11.97;10.43;;;8.10;79.40;;;;;;4980173;28;21000;-90
2022/03/29 02:18:58;;;;;;;13.33;8.63;;;8.00;80.10;;;;;;4975967;28;20184;-90
2022/03/29 02:21:24;;;;;;;11.77;9.17;;;8.10;80.80;;;;;;4982382;28;20972;-90
2022/03/29 02:23:49;;;;;;;12.20;9.00;;;8.00;80.90;;;;;;4982449;28;20223;-90
2022/03/29 02:26:15;;;;;;;12.00;9.40;;;8.10;81.30;;;;;;5003077;28;20196;-92
2022/03/29 02:28:41;;;;;;;15.53;10.13;;;8.10;81.60;;;;;;4986006;28;20197;-91
2022/03/29 02:31:06;;;;;;;11.07;9.10;;;8.00;81.40;;;;;;4987961;28;20559;-91
2022/03/29 02:33:32;;;;;;;10.33;8.97;;;7.90;82.20;;;;;;4980576;28;20268;-90
2022/03/29 02:36:03;;;;;;;11.07;9.97;;;7.90;82.70;;;;;;4986497;28;20219;-90
2022/03/29 02:38:29;;;;;;;11.77;9.60;;;7.90;82.80;;;;;;4981647;28;20197;-91
2022/03/29 02:40:57;;;;;;;11.43;9.30;;;7.90;83.00;;;;;;4983282;28;20428;-91
2022/03/29 02:43:26;;;;;;;12.40;9.33;;;7.90;83.60;;;;;;4985547;28;20235;-91
2022/03/29 02:45:52;;;;;;;10.37;8.70;;;7.70;84.70;;;;;;4981189;28;20766;-91
2022/03/29 02:48:17;;;;;;;16.20;10.00;;;7.70;85.60;;;;;;4984756;28;20454;-92
2022/03/29 02:50:43;;;;;;;11.43;9.40;;;7.70;85.80;;;;;;4980354;28;20550;-90
2022/03/29 02:53:09;;;;;;;13.37;9.53;;;7.70;86.60;;;;;;4977980;28;20755;-91
2022/03/29 02:55:34;;;;;;;16.40;9.60;;;7.60;87.10;;;;;;4981299;28;20820;-91
2022/03/29 02:58:00;;;;;;;15.50;9.83;;;7.60;87.30;;;;;;4983358;28;20758;-90
2022/03/29 03:00:26;;;;;;;12.27;10.10;;;7.70;87.10;;;;;;4991167;28;20237;-91
2022/03/29 03:02:57;;;;;;;12.57;8.90;;;7.70;86.60;;;;;;4991679;28;20536;-88
2022/03/29 03:05:25;;;;;;;13.70;9.23;;;7.70;86.90;;;;;;4982069;28;20451;-89
2022/03/29 03:07:57;;;;;;;11.40;9.60;;;7.70;86.90;;;;;;4973771;28;20462;-92
2022/03/29 03:10:23;;;;;;;11.67;9.50;;;7.70;87.20;;;;;;4977313;28;20463;-91
2022/03/29 03:12:50;;;;;;;16.27;10.00;;;7.60;87.90;;;;;;4987018;28;20455;-91
2022/03/29 03:15:19;;;;;;;12.07;9.17;;;7.40;88.90;;;;;;4980906;28;20535;-91
2022/03/29 03:17:45;;;;;;;10.60;9.20;;;7.50;89.80;;;;;;4982983;28;20481;-91
2022/03/29 03:20:14;;;;;;;13.27;9.77;;;7.50;89.90;;;;;;4980131;28;20765;-91
2022/03/29 03:22:40;;;;;;;14.77;10.10;;;7.50;90.30;;;;;;4975910;28;20458;-92
2022/03/29 03:25:26;;;;;;;16.93;10.20;;;7.40;90.50;;;;;;4993883;28;20219;-91
2022/03/29 03:27:51;;;;;;;12.10;9.30;;;7.30;90.80;;;;;;4985820;28;21004;-91
2022/03/29 03:30:17;;;;;;;12.33;9.50;;;7.40;90.80;;;;;;4986611;28;20216;-92
2022/03/29 03:32:43;;;;;;;12.07;9.93;;;7.40;90.90;;;;;;4988176;28;20194;-91
2022/03/29 03:35:10;;;;;;;11.10;9.47;;;7.40;90.90;;;;;;4987242;28;20550;-91
2022/03/29 03:37:36;;;;;;;12.00;10.07;;;7.50;90.90;;;;;;4983897;28;20536;-92
2022/03/29 03:40:07;;;;;;;12.13;10.30;;;7.40;91.00;;;;;;4983363;28;20438;-89
2022/03/29 03:42:37;;;;;;;10.20;9.10;;;7.50;91.10;;;;;;4988652;28;20451;-91
2022/03/29 03:45:04;;;;;;;10.43;9.10;;;7.50;90.80;;;;;;4990490;28;20792;-92
2022/03/29 03:47:33;;;;;;;12.30;9.93;;;7.60;90.80;;;;;;4992572;28;20434;-90
2022/03/29 03:49:59;;;;;;;13.33;9.10;;;7.60;90.40;;;;;;4997303;28;20544;-88
2022/03/29 03:52:25;;;;;;;14.70;8.83;;;7.60;90.30;;;;;;4981903;28;20953;-90
2022/03/29 03:54:57;;;;;;;11.63;9.00;;;7.60;90.00;;;;;;4982149;28;20450;-91
2022/03/29 03:57:22;;;;;;;11.13;9.17;;;7.60;90.20;;;;;;4979779;28;21150;-92
2022/03/29 03:59:51;;;;;;;13.17;10.00;;;7.60;90.20;;;;;;4985849;28;20478;-93
2022/03/29 04:02:20;;;;;;;12.17;9.57;;;7.60;90.20;;;;;;4987474;28;20214;-93
2022/03/29 04:04:46;;;;;;;17.93;10.00;;;7.60;90.30;;;;;;4989648;28;20446;-91
2022/03/29 04:07:11;;;;;;;13.10;10.60;;;7.50;90.40;;;;;;4987108;28;20477;-90
2022/03/29 04:09:39;;;;;;;12.10;9.67;;;7.40;90.70;;;;;;4980057;28;20567;-91
2022/03/29 04:12:07;;;;;;;15.70;9.83;;;7.40;90.90;;;;;;4980542;28;20452;-91
2022/03/29 04:14:33;;;;;;;13.20;9.10;;;7.40;91.20;;;;;;4986194;28;20192;-92
2022/03/29 04:16:58;;;;;;;11.53;9.07;;;7.40;91.30;;;;;;4980278;28;20491;-92
2022/03/29 04:19:24;;;;;;;14.57;10.67;;;7.40;91.10;;;;;;4982110;28;20272;-89
2022/03/29 04:21:52;;;;;;;12.40;9.70;;;7.40;91.00;;;;;;4979419;28;20205;-89
2022/03/29 04:24:18;;;;;;;13.40;9.70;;;7.50;91.00;;;;;;4984189;28;20445;-91
2022/03/29 04:26:47;;;;;;;10.83;9.30;;;7.50;90.90;;;;;;4983267;28;20241;-91
2022/03/29 04:29:13;;;;;;;13.00;10.47;;;7.50;90.90;;;;;;4986655;28;20632;-89
2022/03/29 04:31:41;;;;;;;12.80;9.80;;;7.50;90.60;;;;;;4989736;28;20451;-90
2022/03/29 04:34:09;;;;;;;15.37;9.60;;;7.50;90.60;;;;;;4984090;28;20186;-90
2022/03/29 04:36:34;;;;;;;14.87;9.93;;;7.40;90.70;;;;;;4977520;28;20487;-90
2022/03/29 04:39:00;;;;;;;12.30;9.43;;;7.40;90.90;;;;;;4992609;28;20515;-91
2022/03/29 04:41:25;;;;;;;13.03;10.23;;;7.40;90.90;;;;;;4981249;28;20240;-91
2022/03/29 04:43:51;;;;;;;13.00;10.20;;;7.40;90.80;;;;;;4981619;28;20266;-90
2022/03/29 04:46:17;;;;;;;13.50;11.27;;;7.40;91.10;;;;;;4980356;28;20316;-89
2022/03/29 04:48:43;;;;;;;14.93;11.70;;;7.30;91.30;;;;;;4985394;28;20188;-89
2022/03/29 04:51:08;;;;;;;11.80;10.00;;;7.10;92.10;;;;;;4984958;28;20850;-91
2022/03/29 04:53:34;;;;;;;14.40;10.57;;;7.20;92.40;;;;;;4978279;28;20453;-89
2022/03/29 04:56:00;;;;;;;15.13;10.83;;;7.20;92.60;;;;;;4978995;28;20224;-90
2022/03/29 04:58:25;;;;;;;12.37;10.10;;;7.10;92.90;;;;;;4979348;28;20198;-91
2022/03/29 05:00:51;;;;;;;13.20;9.90;;;7.20;92.70;;;;;;4989126;28;20189;-91
2022/03/29 05:03:17;;;;;;;13.13;9.90;;;7.10;92.60;;;;;;4997637;28;20186;-92
2022/03/29 05:05:43;;;;;;;15.77;9.33;;;7.10;93.10;;;;;;4995471;28;20451;-91
2022/03/29 05:08:08;;;;;;;13.33;10.53;;;7.10;92.90;;;;;;4990992;28;20192;-91
2022/03/29 05:10:34;;;;;;;15.87;10.13;;;7.20;93.00;;;;;;4989101;28;20536;-91
2022/03/29 05:13:00;;;;;;;13.93;11.00;;;7.20;93.30;;;;;;4999444;28;20178;-89
2022/03/29 05:15:25;;;;;;;11.87;10.50;;;7.10;93.90;;;;;;4987834;28;20635;-84
2022/03/29 05:17:51;;;;;;;12.00;9.60;;;7.00;93.90;;;;;;4982997;28;20239;-87
2022/03/29 05:20:17;;;;;;;14.27;11.50;;;7.10;94.00;;;;;;4985548;28;20541;-88
2022/03/29 05:22:49;;;;;;;15.30;11.10;;;7.00;94.10;;;;;;4991136;28;20190;-90
2022/03/29 05:25:17;;;;;;;12.90;10.10;;;7.00;94.90;;;;;;4987698;28;21034;-88
2022/03/29 05:27:43;;;;;;;11.40;9.40;;;7.00;94.90;;;;;;4993795;28;20435;-89
2022/03/29 05:30:10;;;;;;;12.87;10.33;;;7.10;94.70;;;;;;4989741;28;20441;-88
2022/03/29 05:32:35;;;;;;;12.03;10.03;;;7.00;94.50;;;;;;4981620;28;20813;-89
2022/03/29 05:35:01;;;;;;;15.43;11.50;;;7.10;94.30;;;;;;4999735;28;20457;-88
2022/03/29 05:37:26;;;;;;;14.23;11.30;;;7.20;94.30;;;;;;4992054;28;20222;-88
2022/03/29 05:39:54;;;;;;;16.10;10.60;;;7.20;93.90;;;;;;4991249;28;20187;-86
2022/03/29 05:42:21;;;;;;;15.40;11.87;;;7.30;94.20;;;;;;4991024;28;20193;-87
2022/03/29 05:44:46;;;;;;;15.40;11.90;;;7.30;94.70;;;;;;4994868;28;20446;-88
2022/03/29 05:49:57;;;;;;;15.60;11.17;;;7.60;94.20;;;;;;5011742;28;20491;-87
2022/03/29 05:52:23;;;;;;;13.73;10.80;;;7.70;94.10;;;;;;4987272;28;20446;-87
2022/03/29 05:54:49;;;;;;;12.10;10.77;;;7.90;94.10;;;;;;4981779;28;20439;-87
2022/03/29 05:57:19;;;;;;;13.40;10.80;;;8.00;93.90;;;;;;4975663;28;20491;-88
2022/03/29 05:59:45;;;;;;;13.50;11.20;;;7.90;93.30;;;;;;4980623;28;20189;-88
2022/03/29 06:02:12;;;;;;;12.80;10.67;;;7.90;93.10;;;;;;4978643;28;20447;-87
2022/03/29 06:04:39;;;;;;;24.23;15.47;;;7.90;93.30;;;;;;4981496;28;20970;-86
2022/03/29 06:07:05;;;;;;;23.40;15.87;;;8.00;92.80;;;;;;4981171;28;20448;-87
2022/03/29 06:09:32;;;;;;;19.40;14.70;;;8.10;92.80;;;;;;4988275;28;20825;-88
2022/03/29 06:11:58;;;;;;;21.03;14.43;;;8.10;92.60;;;;;;4978744;28;20448;-86
2022/03/29 06:14:24;;;;;;;15.10;11.87;;;8.20;92.20;;;;;;4980019;28;20446;-87
2022/03/29 06:16:49;;;;;;;14.27;10.73;;;8.20;92.10;;;;;;4979051;28;20229;-88
2022/03/29 06:19:15;;;;;;;12.70;10.40;;;8.30;91.30;;;;;;4983580;28;20211;-87
2022/03/29 06:21:43;;;;;;;13.50;10.83;;;8.30;90.70;;;;;;4981417;28;20641;-87
2022/03/29 06:24:10;;;;;;;16.40;12.53;;;8.40;90.80;;;;;;4974764;28;20439;-85
2022/03/29 06:26:45;;;;;;;14.30;9.90;;;8.40;90.60;;;;;;4979954;28;20447;-88
2022/03/29 06:29:11;;;;;;;14.47;10.47;;;8.40;90.40;;;;;;4976348;28;20444;-86
2022/03/29 06:31:38;;;;;;;13.23;10.87;;;8.30;90.90;;;;;;4976898;28;20809;-85
2022/03/29 06:34:05;;;;;;;15.20;10.87;;;8.20;91.60;;;;;;4986097;28;20937;-86
2022/03/29 06:36:31;;;;;;;11.53;10.13;;;8.30;91.80;;;;;;4976941;28;20483;-85
2022/03/29 06:38:56;;;;;;;17.20;10.87;;;8.30;91.70;;;;;;4990241;28;20428;-85
2022/03/29 06:41:24;;;;;;;11.10;9.83;;;8.20;92.00;;;;;;4974210;28;20723;-85
2022/03/29 06:43:51;;;;;;;12.17;10.43;;;8.20;92.40;;;;;;4977659;28;20271;-85
2022/03/29 06:46:23;;;;;;;16.97;10.90;;;8.20;92.30;;;;;;4973736;28;20442;-86
2022/03/29 06:48:51;;;;;;;14.27;9.77;;;8.40;92.30;;;;;;4979759;28;20471;-85
2022/03/29 06:51:18;;;;;;;13.70;10.83;;;8.30;92.20;;;;;;4992814;28;20807;-84
2022/03/29 06:53:45;;;;;;;11.73;10.00;;;8.20;92.70;;;;;;4972537;28;20445;-86
2022/03/29 06:56:36;;;;;;;12.63;11.00;;;8.10;92.90;;;;;;4979305;28;20495;-86
2022/03/29 06:59:05;;;;;;;14.10;10.27;;;8.20;93.20;;;;;;4975944;28;20788;-85
2022/03/29 07:01:32;;;;;;;12.30;10.43;;;8.30;92.90;;;;;;4979434;28;20489;-85
2022/03/29 07:03:59;;;;;;;18.40;10.90;;;8.50;92.50;;;;;;4973881;28;21006;-87
2022/03/29 07:06:30;;;;;;;13.63;10.30;;;8.80;91.90;;;;;;4977236;28;20439;-88
2022/03/29 07:11:42;;;;;;;15.87;10.13;;;8.90;91.50;;;;;;4997437;28;20476;-86
2022/03/29 07:14:28;;;;;;;12.83;10.83;;;9.10;91.30;;;;;;4997195;28;20452;-86
2022/03/29 07:17:08;;;;;;;13.10;11.23;;;9.20;90.70;;;;;;5001840;28;20477;-85
2022/03/29 07:19:33;;;;;;;13.73;10.33;;;9.40;90.30;;;;;;4981697;28;20444;-85
2022/03/29 07:22:02;;;;;;;13.47;10.93;;;9.50;89.80;;;;;;5002371;28;20585;-85
2022/03/29 07:24:35;;;;;;;16.93;11.37;;;9.40;90.00;;;;;;4984022;28;20441;-86
2022/03/29 07:27:02;;;;;;;13.53;10.57;;;9.50;88.60;;;;;;4986644;28;20447;-85
2022/03/29 07:29:28;;;;;;;13.20;11.20;;;9.60;86.90;;;;;;4982691;28;20495;-86
2022/03/29 07:31:55;;;;;;;13.63;11.17;;;9.70;85.80;;;;;;4980346;28;21268;-86
2022/03/29 07:34:35;;;;;;;14.20;11.50;;;9.90;84.90;;;;;;4982571;28;20430;-86
2022/03/29 07:37:16;;;;;;;16.93;11.47;;;10.10;83.10;;;;;;5002648;28;20490;-86
2022/03/29 07:39:42;;;;;;;12.27;10.30;;;10.30;82.60;;;;;;4986386;28;20491;-85
2022/03/29 07:42:13;;;;;;;14.93;11.67;;;10.50;82.70;;;;;;4987436;28;21278;-86
2022/03/29 07:44:40;;;;;;;15.93;11.50;;;10.70;82.10;;;;;;4979991;28;20199;-87
2022/03/29 07:47:08;;;;;;;16.63;12.10;;;10.80;80.40;;;;;;4983835;28;20479;-87
2022/03/29 07:49:36;;;;;;;15.67;12.40;;;10.60;81.10;;;;;;4972045;28;20455;-85
2022/03/29 07:52:02;;;;;;;15.70;11.87;;;10.60;82.60;;;;;;4959993;28;20450;-86
2022/03/29 07:54:28;;;;;;;12.07;10.73;;;10.60;82.90;;;;;;4960180;28;20466;-86
2022/03/29 07:56:58;;;;;;;13.37;12.00;;;10.70;83.20;;;;;;4957533;28;20494;-86
2022/03/29 07:59:25;;;;;;;15.43;12.43;;;10.80;82.20;;;;;;4978287;28;20208;-86
2022/03/29 08:01:54;;;;;;;13.43;11.60;;;10.80;82.50;;;;;;4949537;28;20459;-86
2022/03/29 08:04:20;;;;;;;13.93;12.43;;;10.60;84.40;;;;;;4969272;28;20915;-85
2022/03/29 08:06:47;;;;;;;15.10;11.93;;;10.70;84.10;;;;;;4981801;28;20445;-85
2022/03/29 08:09:14;;;;;;;16.17;11.27;;;11.00;82.40;;;;;;4957339;28;20451;-86
2022/03/29 08:11:40;;;;;;;32.87;28.90;;;11.40;80.90;;;;;;4968637;28;20448;-84
2022/03/29 08:14:05;;;;;;;16.20;13.73;;;11.60;80.00;;;;;;4965005;28;20756;-84
2022/03/29 08:16:33;;;;;;;16.63;12.57;;;12.00;77.90;;;;;;4961470;28;20231;-85
2022/03/29 08:19:16;;;;;;;13.73;11.60;;;12.30;76.30;;;;;;4964826;28;20197;-85
2022/03/29 08:21:50;;;;;;;14.47;11.73;;;12.30;74.40;;;;;;4971086;28;20493;-86
2022/03/29 08:24:18;;;;;;;13.10;11.60;;;12.30;74.50;;;;;;4989018;28;21122;-85
2022/03/29 08:26:45;;;;;;;15.70;12.30;;;12.40;75.80;;;;;;4975428;28;21202;-86
2022/03/29 08:29:15;;;;;;;14.83;11.63;;;12.50;75.50;;;;;;4964285;28;20452;-86
2022/03/29 08:31:41;;;;;;;14.30;11.67;;;12.80;75.60;;;;;;4971163;28;20539;-86
2022/03/29 08:34:07;;;;;;;16.10;12.37;;;13.30;73.80;;;;;;4965046;28;20467;-86
2022/03/29 08:36:34;;;;;;;12.60;11.40;;;13.50;71.70;;;;;;4977400;28;20225;-86
2022/03/29 08:39:01;;;;;;;14.83;12.27;;;13.70;70.50;;;;;;4954098;28;20428;-85
2022/03/29 08:41:34;;;;;;;13.80;11.47;;;13.70;69.10;;;;;;4957120;28;20457;-86
2022/03/29 08:44:01;;;;;;;18.83;11.60;;;13.80;69.10;;;;;;4958520;28;22799;-86
2022/03/29 08:46:33;;;;;;;12.13;10.83;;;13.80;68.60;;;;;;4959802;28;20451;-87
2022/03/29 08:49:08;;;;;;;13.70;10.60;;;13.70;68.40;;;;;;4952057;28;20444;-87
2022/03/29 08:51:43;;;;;;;14.40;11.40;;;13.50;68.70;;;;;;4961595;28;21033;-87
2022/03/29 08:54:16;;;;;;;12.87;11.40;;;13.50;69.50;;;;;;4955612;28;21095;-87
2022/03/29 08:56:51;;;;;;;14.20;11.50;;;13.50;69.70;;;;;;4957761;28;20549;-87
2022/03/29 08:59:20;;;;;;;12.10;10.73;;;13.70;69.20;;;;;;4962990;28;21555;-87
2022/03/29 09:01:48;;;;;;;12.13;10.63;;;13.90;68.60;;;;;;4976689;28;20494;-86
2022/03/29 09:04:35;;;;;;;12.43;10.87;;;13.70;68.20;;;;;;4978929;28;20440;-86
2022/03/29 09:07:17;;;;;;;14.80;11.70;;;13.70;69.30;;;;;;4962773;28;20452;-86
2022/03/29 09:09:44;;;;;;;16.20;12.40;;;13.90;68.40;;;;;;4962825;28;20474;-86
2022/03/29 09:12:13;;;;;;;12.00;10.67;;;14.00;68.80;;;;;;4959171;28;20917;-86
2022/03/29 09:14:54;;;;;;;19.27;11.57;;;14.30;67.60;;;;;;4972627;28;20472;-86
2022/03/29 09:17:44;;;;;;;12.90;11.57;;;14.70;68.00;;;;;;4961126;28;20541;-87
2022/03/29 09:20:21;;;;;;;13.23;11.50;;;15.20;66.80;;;;;;4963249;28;21210;-87
2022/03/29 09:22:49;;;;;;;12.47;11.20;;;15.20;66.00;;;;;;4977592;28;20448;-86
2022/03/29 09:25:37;;;;;;;13.93;11.83;;;15.30;64.70;;;;;;4968048;28;20436;-87
2022/03/29 09:28:12;;;;;;;12.73;10.60;;;15.30;64.30;;;;;;4969791;28;20495;-86
2022/03/29 09:30:50;;;;;;;16.30;11.70;;;15.70;64.60;;;;;;4968305;28;20465;-87
2022/03/29 09:33:18;;;;;;;13.13;11.37;;;15.90;64.40;;;;;;4986655;28;20429;-87
2022/03/29 09:36:03;;;;;;;12.60;10.57;;;16.00;63.60;;;;;;4988515;28;20846;-87
2022/03/29 09:38:34;;;;;;;14.87;11.17;;;16.10;65.00;;;;;;4978540;28;20514;-86
2022/03/29 09:41:04;;;;;;;15.93;12.67;;;16.10;62.80;;;;;;4970711;28;20440;-87
2022/03/29 09:43:31;;;;;;;13.43;11.80;;;16.40;60.90;;;;;;4970119;28;20593;-87
2022/03/29 09:46:02;;;;;;;13.03;11.17;;;16.70;64.00;;;;;;4972639;28;20594;-87
2022/03/29 09:48:35;;;;;;;16.63;13.00;;;17.00;61.90;;;;;;4972505;28;21116;-87
2022/03/29 09:51:10;;;;;;;15.90;12.43;;;17.10;58.70;;;;;;4975407;28;21040;-87
2022/03/29 09:53:52;;;;;;;15.43;11.53;;;17.10;58.70;;;;;;4961918;28;20495;-86
2022/03/29 09:56:26;;;;;;;15.07;11.90;;;17.20;57.80;;;;;;4960954;28;20472;-87
2022/03/29 09:59:02;;;;;;;14.77;11.40;;;17.30;58.00;;;;;;4969975;28;20539;-86
2022/03/29 10:01:30;;;;;;;12.30;11.10;;;17.50;57.00;;;;;;4969228;28;20447;-87
2022/03/29 10:04:04;;;;;;;14.67;10.97;;;17.50;57.30;;;;;;4976192;28;20448;-87
2022/03/29 10:06:36;;;;;;;14.07;12.57;;;17.00;57.40;;;;;;4977754;28;20462;-87
2022/03/29 10:11:48;;;;;;;13.30;11.93;;;16.40;59.70;;;;;;4979463;28;21604;-87
2022/03/29 10:14:17;;;;;;;12.73;11.40;;;16.70;60.70;;;;;;4963412;28;21039;-87
2022/03/29 10:16:46;;;;;;;12.23;10.80;;;17.40;60.80;;;;;;4979206;28;20221;-87
2022/03/29 10:19:17;;;;;;;13.90;12.30;;;18.20;60.00;;;;;;4957780;28;20439;-86
2022/03/29 10:21:46;;;;;;;13.70;12.20;;;18.70;58.70;;;;;;4958864;28;20455;-87
2022/03/29 10:24:23;;;;;;;12.93;11.57;;;18.90;59.00;;;;;;4983668;28;20483;-87
2022/03/29 10:26:57;;;;;;;14.63;13.23;;;18.80;57.20;;;;;;4960178;28;20669;-87
2022/03/29 10:29:30;;;;;;;14.33;12.93;;;19.00;57.50;;;;;;4965104;28;20875;-87
2022/03/29 10:32:01;;;;;;;13.60;12.20;;;19.10;56.30;;;;;;4982039;28;20933;-87
2022/03/29 10:34:40;;;;;;;15.50;12.30;;;19.50;57.10;;;;;;4965534;28;20456;-86
2022/03/29 10:37:14;;;;;;;13.93;12.47;;;18.90;54.90;;;;;;4951935;28;20795;-87
2022/03/29 10:40:09;;;;;;;15.20;12.30;;;18.80;55.60;;;;;;4962787;28;21115;-87
2022/03/29 10:42:58;;;;;;;13.63;11.87;;;19.70;53.90;;;;;;4972551;28;20853;-87
2022/03/29 10:45:42;;;;;;;16.57;11.70;;;19.90;53.70;;;;;;4979939;28;20908;-87
2022/03/29 10:48:09;;;;;;;12.13;10.87;;;19.30;56.90;;;;;;4959263;28;20483;-87
2022/03/29 10:50:57;;;;;;;14.17;12.67;;;19.00;56.50;;;;;;4958555;28;20229;-87
2022/03/29 10:53:22;;;;;;;13.07;11.60;;;18.80;55.70;;;;;;4971977;28;20446;-87
2022/03/29 10:56:17;;;;;;;17.10;12.97;;;18.90;55.10;;;;;;4966079;28;20444;-87
2022/03/29 10:59:01;;;;;;;14.50;12.80;;;19.00;57.20;;;;;;4966635;28;20844;-86
2022/03/29 11:01:27;;;;;;;17.57;12.90;;;18.70;58.30;;;;;;4964493;28;20491;-86
2022/03/29 11:04:00;;;;;;;13.20;11.67;;;18.80;58.30;;;;;;4985568;28;20974;-87
2022/03/29 11:07:26;;;;;;;14.67;13.10;;;18.90;57.60;;;;;;4988754;28;20184;-91
2022/03/29 11:10:20;;;;;;;14.50;11.60;;;19.10;56.60;;;;;;5002132;28;20792;-88
2022/03/29 11:13:09;;;;;;;14.63;12.30;;;19.30;57.10;;;;;;4968618;28;20468;-90
2022/03/29 11:15:38;;;;;;;17.83;12.77;;;19.30;56.10;;;;;;4985624;28;20957;-90
2022/03/29 11:18:32;;;;;;;18.03;13.10;;;19.70;54.00;;;;;;4976036;28;20939;-90
2022/03/29 11:21:04;;;;;;;15.10;12.67;;;19.90;54.60;;;;;;4976260;28;20440;-90
2022/03/29 11:24:01;;;;;;;14.00;11.80;;;19.70;57.00;;;;;;4968289;28;20464;-90
2022/03/29 11:26:34;;;;;;;15.63;12.60;;;19.90;55.50;;;;;;5000974;28;20451;-90
2022/03/29 11:29:09;;;;;;;14.90;12.63;;;20.20;53.60;;;;;;4995098;28;20809;-90
2022/03/29 11:31:39;;;;;;;13.63;11.47;;;20.60;53.90;;;;;;4988947;28;20439;-89
2022/03/29 11:34:11;;;;;;;13.67;12.27;;;20.20;53.60;;;;;;4995512;28;20431;-91
2022/03/29 11:36:39;;;;;;;14.00;11.70;;;20.30;56.30;;;;;;4999507;28;20468;-92
2022/03/29 11:39:22;;;;;;;13.70;12.20;;;20.90;52.10;;;;;;4993689;28;20874;-92
2022/03/29 11:41:58;;;;;;;14.90;11.87;;;21.00;52.50;;;;;;4985410;28;20433;-93
2022/03/29 11:44:26;;;;;;;15.03;13.00;;;20.40;50.60;;;;;;4983516;28;20459;-91
2022/03/29 11:46:58;;;;;;;17.67;12.23;;;20.60;54.50;;;;;;4980019;28;20471;-91
2022/03/29 11:49:27;;;;;;;13.37;11.50;;;20.90;52.70;;;;;;4992391;28;20534;-90
2022/03/29 11:52:19;;;;;;;15.20;11.80;;;21.10;51.40;;;;;;4975144;28;20941;-90
2022/03/29 11:54:53;;;;;;;15.40;13.37;;;21.10;52.80;;;;;;4962662;28;20441;-90
2022/03/29 11:57:31;;;;;;;14.53;12.47;;;20.80;51.60;;;;;;4971546;28;20481;-90
2022/03/29 12:00:00;;;;;;;14.47;11.73;;;20.50;52.90;;;;;;4970521;28;20502;-91
2022/03/29 12:02:28;;;;;;;15.27;12.87;;;20.50;53.00;;;;;;4977434;28;20538;-91
2022/03/29 12:04:57;;;;;;;15.70;12.33;;;20.40;54.40;;;;;;4951998;28;20459;-91
2022/03/29 12:07:44;;;;;;;17.57;11.83;;;20.30;54.30;;;;;;4968219;28;20445;-89
2022/03/29 12:10:15;;;;;;;14.90;12.80;;;20.10;53.40;;;;;;4971811;28;20572;-92
2022/03/29 12:12:50;;;;;;;12.90;11.50;;;20.50;49.50;;;;;;4973547;28;20447;-91
2022/03/29 12:15:19;;;;;;;13.97;11.23;;;20.50;48.30;;;;;;4958775;28;20444;-92
2022/03/29 12:20:47;;;;;;;14.30;11.80;;;21.40;46.70;;;;;;4988080;28;21214;-90
2022/03/29 12:23:30;;;;;;;16.00;12.20;;;21.40;49.30;;;;;;4965721;28;21211;-92
2022/03/29 12:26:31;;;;;;;14.07;12.77;;;21.10;48.20;;;;;;4972246;28;20596;-91
2022/03/29 12:28:58;;;;;;;15.33;11.23;;;20.20;47.30;;;;;;4985303;28;21541;-91
2022/03/29 12:31:27;;;;;;;13.27;11.80;;;20.40;46.50;;;;;;4975208;28;20462;-91
2022/03/29 12:33:53;;;;;;;14.00;11.30;;;19.90;46.50;;;;;;4984469;28;20436;-90
2022/03/29 12:36:19;;;;;;;15.30;12.07;;;19.50;45.30;;;;;;4990988;28;20552;-92
2022/03/29 12:38:51;;;;;;;14.87;12.90;;;20.00;47.20;;;;;;4975745;28;20501;-92
2022/03/29 12:41:55;;;;;;;11.97;10.60;;;20.40;48.30;;;;;;4975824;28;20440;-90
2022/03/29 12:44:36;;;;;;;11.07;10.07;;;20.50;44.40;;;;;;4966426;28;21295;-90
2022/03/29 12:47:07;;;;;;;11.27;10.07;;;20.80;41.70;;;;;;4968106;28;20953;-90
2022/03/29 12:49:35;;;;;;;21.10;10.50;;;21.00;40.90;;;;;;4987995;28;20447;-91
2022/03/29 12:52:03;;;;;;;17.20;10.20;;;20.00;44.10;;;;;;4974403;28;20547;-90
2022/03/29 12:54:35;;;;;;;14.20;10.40;;;19.50;42.30;;;;;;4976942;28;20445;-90
2022/03/29 12:57:02;;;;;;;13.20;11.47;;;19.30;43.60;;;;;;4975208;28;20961;-91
2022/03/29 12:59:38;;;;;;;22.83;11.33;;;18.90;44.00;;;;;;4984404;28;20581;-92
2022/03/29 13:02:17;;;;;;;11.43;10.10;;;18.90;44.00;;;;;;4990985;28;20447;-89
2022/03/29 13:04:58;;;;;;;12.50;10.73;;;18.80;43.60;;;;;;4981970;28;20450;-91